EVLA/LPX METAR and TAF weather

Enter ICAO airport designator
Station Type Date Time Source
EVLA METAR 2020/09/20 13:20 UTC NOAA

EVLA 201320Z AUTO 22007KT 9999 NCD 17/11 Q1022


Station Type Date Time Source
EVLA Decoded METAR 2020/09/20 13:20 UTC NOAA

Liepaja International Airport, Latvia (EVLA) 56-31N 021-05E
Sep 20, 2020 - 09:20 AM EDT / 2020.09.20 1320 UTC
Wind: from the SW (220 degrees) at 8 MPH (7 KT):0
Visibility: greater than 7 mile(s):0
Temperature: 62 F (17 C)
Dew Point: 51 F (11 C)
Relative Humidity: 67%
Pressure (altimeter): 30.18 in. Hg (1022 hPa)
ob: EVLA 201320Z AUTO 22007KT 9999 NCD 17/11 Q1022
cycle: 13

Station Type Date Time Source
EVLA TAF 2020/09/20 12:06 UTC NOAA

TAF TAF EVLA 201103Z 2012/2112 VRB02KT CAVOK
TEMPO 2018/2106 3000 MIFG BR

Example: see airport list